Hauptseite
METAR-TAF:

METAR-TAF

Flughäfen :

Villamontes, Bolivien

Breite: 21-15S, Länge: 063-27W, Höhe: 398 m

Beobachtung

Neuester Wetterbericht von vor 20 Minuten, um 11:00 UTC
Windstille
Temperatur 20°C
Luftfeuchtigkeit 78%
Luftdruck 1012 hPa
Sichtweite 10 km oder mehr
Geschlossene Wolkendecke in der Höhe von 7000 ft

METAR: SLVM 231100Z 00000KT 9999 OVC070 20/16 Q1012

Zeit: 07:20 (11:20 UTC)


TAF: fehlend

Wetterbeobachtungen und Prognosen von mehr als 4000 Flughäfen (METAR und TAF Bericht).

Die verfügbaren Stationen werden durch gelbe und rote Markierungen auf der Karte dargestellt.

Führen Sie die Maus auf sie, um den Namen der Station zu sehen.

Darauf klicken, um die Beobachtung von Wetterbeobachtungen und Prognosen zu sehen.

Um die Karte zu ändern : klicken Sie auf den grünen Tasten mit einem schwarzen Kreuz Zum Vergrößern, auf den grünen Button mit einem Gedankenstrich zu verkleinern, oder auf die grünen Pfeile für benachbarte Karten.


METAR-TAF: